Time;durP1;ratioP1;P1;durP2;ratioP2;P2;SDS_P1;SDS_P2;PMS_P1;PMS_P2;Temp;Humidity;BMP_temperature;BMP_pressure;BME280_temperature;BME280_humidity;BME280_pressure;Samples;Min_cycle;Max_cycle;Signal;HPM_P1;HPM_P2
2024/01/30 00:00:29;;;;;;;0.30;0.30;;;;;;;7.34;100.00;102478.19;5092341;28;20396;-59
2024/01/30 00:02:54;;;;;;;0.30;0.30;;;;;;;7.29;100.00;102479.56;5093293;28;20043;-59
2024/01/30 00:05:19;;;;;;;0.28;0.28;;;;;;;7.25;100.00;102484.44;5093162;28;20105;-59
2024/01/30 00:07:45;;;;;;;0.30;0.30;;;;;;;7.24;100.00;102487.81;5092615;28;20012;-59
2024/01/30 00:10:10;;;;;;;0.30;0.30;;;;;;;7.19;100.00;102484.03;5092849;28;20040;-59
2024/01/30 00:12:35;;;;;;;0.30;0.30;;;;;;;7.16;100.00;102478.69;5093180;28;20460;-58
2024/01/30 00:15:01;;;;;;;0.30;0.30;;;;;;;7.14;100.00;102475.16;5092400;28;20016;-59
2024/01/30 00:17:26;;;;;;;0.30;0.30;;;;;;;7.09;100.00;102476.50;5092784;28;20103;-59
2024/01/30 00:19:51;;;;;;;0.30;0.30;;;;;;;7.07;100.00;102484.06;5093136;28;20031;-59
2024/01/30 00:22:17;;;;;;;0.30;0.30;;;;;;;7.06;100.00;102473.69;5092043;28;20051;-59
2024/01/30 00:24:42;;;;;;;0.40;0.40;;;;;;;7.05;100.00;102471.91;5093098;28;20028;-59
2024/01/30 00:27:08;;;;;;;0.40;0.40;;;;;;;7.03;100.00;102476.06;5093062;28;20012;-59
2024/01/30 00:29:33;;;;;;;0.30;0.30;;;;;;;6.97;100.00;102467.94;5091908;28;20050;-59
2024/01/30 00:31:59;;;;;;;0.20;0.20;;;;;;;6.92;100.00;102473.63;5092834;28;20048;-59
2024/01/30 00:34:25;;;;;;;0.25;0.25;;;;;;;6.80;100.00;102471.88;5092746;28;20032;-59
2024/01/30 00:36:50;;;;;;;0.40;0.40;;;;;;;6.77;100.00;102475.09;5092294;28;20027;-59
2024/01/30 00:39:16;;;;;;;0.35;0.35;;;;;;;6.73;100.00;102470.53;5092712;28;20028;-59
2024/01/30 00:41:41;;;;;;;0.30;0.30;;;;;;;6.66;100.00;102463.19;5092937;28;20039;-59
2024/01/30 00:44:07;;;;;;;0.20;0.20;;;;;;;6.63;100.00;102461.31;5091867;28;20097;-59
2024/01/30 00:46:32;;;;;;;0.35;0.35;;;;;;;6.54;100.00;102458.97;5092538;28;20032;-59
2024/01/30 00:48:57;;;;;;;0.30;0.30;;;;;;;6.57;100.00;102456.63;5092918;28;20034;-59
2024/01/30 00:51:22;;;;;;;0.30;0.30;;;;;;;6.55;100.00;102468.44;5091617;28;20016;-59
2024/01/30 00:53:48;;;;;;;0.30;0.30;;;;;;;6.54;100.00;102460.66;5092879;28;20035;-59
2024/01/30 00:56:13;;;;;;;0.20;0.20;;;;;;;6.49;100.00;102462.88;5091718;28;20016;-59
2024/01/30 00:58:39;;;;;;;0.30;0.30;;;;;;;6.44;100.00;102456.50;5092670;28;20467;-59
2024/01/30 01:01:04;;;;;;;0.30;0.30;;;;;;;6.41;100.00;102452.06;5092482;28;20075;-59
2024/01/30 01:03:29;;;;;;;0.40;0.40;;;;;;;6.38;100.00;102456.09;5091778;28;20360;-59
2024/01/30 01:05:55;;;;;;;0.40;0.40;;;;;;;6.32;100.00;102456.53;5092818;28;20055;-59
2024/01/30 01:08:20;;;;;;;0.30;0.30;;;;;;;6.29;100.00;102455.41;5092241;28;20024;-59
2024/01/30 01:10:45;;;;;;;0.30;0.30;;;;;;;6.21;100.00;102458.31;5091861;28;20034;-59
2024/01/30 01:13:11;;;;;;;0.30;0.30;;;;;;;6.18;100.00;102457.19;5092304;28;20024;-59
2024/01/30 01:15:37;;;;;;;0.30;0.30;;;;;;;6.13;100.00;102453.41;5093972;28;20028;-59
2024/01/30 01:18:02;;;;;;;0.30;0.30;;;;;;;6.08;100.00;102443.72;5095606;28;20035;-59
2024/01/30 01:20:28;;;;;;;0.30;0.30;;;;;;;6.06;100.00;102452.06;5096156;28;20077;-59
2024/01/30 01:22:53;;;;;;;0.30;0.30;;;;;;;6.00;100.00;102446.50;5096304;28;20020;-58
2024/01/30 01:25:19;;;;;;;0.32;0.32;;;;;;;5.97;100.00;102439.44;5095040;28;20077;-58
2024/01/30 01:27:51;;;;;;;0.30;0.30;;;;;;;5.94;100.00;102441.78;5096162;28;20023;-59
2024/01/30 01:30:21;;;;;;;0.38;0.38;;;;;;;5.96;100.00;102441.88;5095878;28;20020;-58
2024/01/30 01:32:50;;;;;;;0.25;0.25;;;;;;;5.94;100.00;102442.66;5095323;28;20476;-58
2024/01/30 01:35:16;;;;;;;0.30;0.30;;;;;;;5.88;100.00;102447.31;5096023;28;20074;-58
2024/01/30 01:37:41;;;;;;;0.40;0.40;;;;;;;5.96;100.00;102444.44;5096218;28;20432;-58
2024/01/30 01:40:07;;;;;;;0.40;0.40;;;;;;;5.95;100.00;102433.31;5094901;28;20119;-59
2024/01/30 01:42:32;;;;;;;0.30;0.30;;;;;;;5.91;100.00;102436.41;5095680;28;20082;-58
2024/01/30 01:44:58;;;;;;;0.30;0.30;;;;;;;5.96;100.00;102434.22;5095848;28;20204;-58
2024/01/30 01:47:23;;;;;;;0.40;0.40;;;;;;;5.92;100.00;102433.97;5094832;28;20028;-58
2024/01/30 01:49:49;;;;;;;0.30;0.30;;;;;;;5.94;100.00;102432.44;5095930;28;20085;-58
2024/01/30 01:52:14;;;;;;;0.30;0.30;;;;;;;5.97;100.00;102433.44;5095424;28;20395;-59
2024/01/30 01:54:40;;;;;;;0.30;0.30;;;;;;;6.01;100.00;102417.56;5094873;28;20089;-59
2024/01/30 01:57:05;;;;;;;0.40;0.40;;;;;;;6.06;100.00;102418.78;5095563;28;20546;-58
2024/01/30 01:59:31;;;;;;;0.35;0.35;;;;;;;6.04;100.00;102428.00;5094614;28;20103;-59
2024/01/30 02:01:56;;;;;;;0.40;0.40;;;;;;;6.03;100.00;102426.22;5095455;28;20471;-58
2024/01/30 02:04:22;;;;;;;0.30;0.30;;;;;;;6.03;100.00;102428.78;5095085;28;20028;-58
2024/01/30 02:06:47;;;;;;;0.30;0.30;;;;;;;5.97;100.00;102423.22;5094840;28;20052;-58
2024/01/30 02:09:13;;;;;;;0.40;0.40;;;;;;;5.96;100.00;102423.97;5095226;28;20077;-58
2024/01/30 02:11:38;;;;;;;0.40;0.40;;;;;;;5.97;100.00;102411.28;5095451;28;20024;-58
2024/01/30 02:14:04;;;;;;;0.30;0.30;;;;;;;5.89;100.00;102422.63;5094571;28;20464;-59
2024/01/30 02:16:30;;;;;;;0.40;0.40;;;;;;;5.86;100.00;102418.19;5095116;28;20039;-58
2024/01/30 02:18:56;;;;;;;0.30;0.30;;;;;;;5.91;100.00;102415.94;5095382;28;20040;-57
2024/01/30 02:21:21;;;;;;;0.40;0.40;;;;;;;5.88;100.00;102416.59;5094195;28;20028;-58
2024/01/30 02:23:47;;;;;;;0.30;0.30;;;;;;;5.92;100.00;102413.50;5095179;28;20031;-59
2024/01/30 02:26:12;;;;;;;0.30;0.30;;;;;;;5.92;100.00;102413.50;5094786;28;20476;-58
2024/01/30 02:28:38;;;;;;;0.30;0.30;;;;;;;5.94;100.00;102414.50;5094533;28;20519;-58
2024/01/30 02:31:04;;;;;;;0.30;0.30;;;;;;;5.94;100.00;102421.31;5095267;28;20044;-59
2024/01/30 02:33:29;;;;;;;0.40;0.40;;;;;;;5.93;100.00;102412.72;5094794;28;20020;-58
2024/01/30 02:35:55;;;;;;;0.40;0.40;;;;;;;5.93;100.00;102415.28;5094292;28;20030;-58
2024/01/30 02:38:20;;;;;;;0.30;0.30;;;;;;;5.95;100.00;102415.38;5094667;28;20089;-58
2024/01/30 02:40:45;;;;;;;0.40;0.40;;;;;;;5.97;100.00;102412.97;5094741;28;20028;-59
2024/01/30 02:43:11;;;;;;;0.30;0.30;;;;;;;6.03;100.00;102410.88;5093587;28;20028;-59
2024/01/30 02:45:36;;;;;;;0.30;0.30;;;;;;;5.96;100.00;102409.50;5094667;28;20040;-61
2024/01/30 02:48:01;;;;;;;0.28;0.28;;;;;;;6.00;100.00;102410.66;5094781;28;20387;-59
2024/01/30 02:50:26;;;;;;;0.40;0.40;;;;;;;5.92;100.00;102404.94;5093414;28;20070;-59
2024/01/30 02:52:52;;;;;;;0.30;0.30;;;;;;;5.88;100.00;102405.50;5094697;28;20424;-59
2024/01/30 02:55:17;;;;;;;0.40;0.40;;;;;;;5.90;100.00;102411.59;5094330;28;20066;-58
2024/01/30 02:57:43;;;;;;;0.30;0.30;;;;;;;5.96;100.00;102408.63;5093764;28;20024;-59
2024/01/30 03:00:09;;;;;;;0.30;0.30;;;;;;;5.93;100.00;102409.28;5094666;28;20471;-58
2024/01/30 03:02:35;;;;;;;0.40;0.40;;;;;;;6.03;100.00;102406.66;5094084;28;20028;-59
2024/01/30 03:05:00;;;;;;;0.30;0.30;;;;;;;6.03;100.00;102405.75;5093839;28;20103;-58
2024/01/30 03:07:26;;;;;;;0.40;0.40;;;;;;;5.97;100.00;102395.06;5093995;28;20022;-58
2024/01/30 03:09:51;;;;;;;0.38;0.38;;;;;;;5.96;100.00;102396.69;5093534;28;20027;-59
2024/01/30 03:12:16;;;;;;;0.40;0.40;;;;;;;5.97;100.00;102397.63;5093564;28;20099;-59
2024/01/30 03:14:42;;;;;;;0.30;0.30;;;;;;;6.00;100.00;102398.72;5094342;28;20119;-59
2024/01/30 03:17:07;;;;;;;0.40;0.40;;;;;;;6.04;100.00;102384.50;5093581;28;20103;-59
2024/01/30 03:19:32;;;;;;;0.30;0.30;;;;;;;6.01;100.00;102376.63;5093948;28;20409;-58
2024/01/30 03:21:58;;;;;;;0.35;0.35;;;;;;;5.98;100.00;102376.34;5094008;28;20036;-59
2024/01/30 03:24:24;;;;;;;0.40;0.40;;;;;;;6.00;100.00;102369.69;5093022;28;20099;-59
2024/01/30 03:26:49;;;;;;;0.30;0.30;;;;;;;5.96;100.00;102368.56;5094148;28;20090;-59
2024/01/30 03:29:15;;;;;;;0.30;0.30;;;;;;;5.92;100.00;102371.66;5093842;28;20472;-59
2024/01/30 03:31:40;;;;;;;0.30;0.30;;;;;;;5.98;100.00;102371.22;5093292;28;20031;-59
2024/01/30 03:34:06;;;;;;;0.35;0.35;;;;;;;5.99;100.00;102368.81;5093830;28;20028;-59
2024/01/30 03:36:33;;;;;;;0.30;0.30;;;;;;;6.00;100.00;102360.34;5093588;28;20494;-59
2024/01/30 03:38:58;;;;;;;0.30;0.30;;;;;;;6.05;100.00;102363.25;5092492;28;20028;-59
2024/01/30 03:41:24;;;;;;;0.30;0.30;;;;;;;6.12;100.00;102370.59;5093248;28;20380;-59
2024/01/30 03:43:50;;;;;;;0.30;0.30;;;;;;;6.17;100.00;102368.38;5093639;28;20067;-59
2024/01/30 03:46:15;;;;;;;0.40;0.40;;;;;;;6.21;100.00;102371.25;5092338;28;20082;-59
2024/01/30 03:48:40;;;;;;;0.30;0.30;;;;;;;6.32;100.00;102368.59;5093602;28;20024;-59
2024/01/30 03:51:06;;;;;;;0.30;0.30;;;;;;;6.39;100.00;102370.78;5093565;28;20036;-59
2024/01/30 03:53:31;;;;;;;0.30;0.30;;;;;;;6.44;100.00;102369.44;5092454;28;20031;-59
2024/01/30 03:55:57;;;;;;;0.30;0.30;;;;;;;6.48;100.00;102371.47;5093390;28;20475;-59
2024/01/30 03:58:22;;;;;;;0.30;0.30;;;;;;;6.55;100.00;102373.66;5093019;28;20039;-59
2024/01/30 04:00:47;;;;;;;0.40;0.40;;;;;;;6.59;100.00;102375.63;5092664;28;20519;-59
2024/01/30 04:03:15;;;;;;;0.40;0.40;;;;;;;6.69;100.00;102382.31;5093141;28;20031;-59
2024/01/30 04:05:41;;;;;;;0.30;0.30;;;;;;;6.75;100.00;102381.84;5093450;28;20028;-59
2024/01/30 04:08:07;;;;;;;0.30;0.30;;;;;;;6.83;100.00;102375.59;5092557;28;20095;-59
2024/01/30 04:10:32;;;;;;;0.30;0.30;;;;;;;6.87;100.00;102376.72;5092915;28;20357;-58
2024/01/30 04:12:57;;;;;;;0.30;0.30;;;;;;;6.89;100.00;102381.16;5093289;28;20097;-59
2024/01/30 04:15:22;;;;;;;0.30;0.30;;;;;;;6.92;100.00;102373.66;5092397;28;20383;-59
2024/01/30 04:17:48;;;;;;;0.30;0.30;;;;;;;6.94;100.00;102376.31;5093208;28;20039;-58
2024/01/30 04:20:17;;;;;;;0.30;0.30;;;;;;;6.98;100.00;102369.75;5091856;28;20020;-59
2024/01/30 04:22:46;;;;;;;0.30;0.30;;;;;;;7.00;100.00;102375.88;5093049;28;20059;-59
2024/01/30 04:25:13;;;;;;;0.38;0.38;;;;;;;6.98;100.00;102373.19;5092713;28;20028;-58
2024/01/30 04:27:38;;;;;;;0.30;0.30;;;;;;;7.02;100.00;102371.72;5092438;28;20024;-59
2024/01/30 04:30:04;;;;;;;0.38;0.38;;;;;;;7.00;100.00;102371.63;5093224;28;20089;-59
2024/01/30 04:32:29;;;;;;;0.30;0.30;;;;;;;7.01;100.00;102360.59;5092550;28;20024;-58
2024/01/30 04:34:55;;;;;;;0.30;0.30;;;;;;;7.02;100.00;102356.34;5092222;28;20476;-59
2024/01/30 04:37:20;;;;;;;0.30;0.30;;;;;;;7.03;100.00;102353.00;5092708;28;20115;-58
2024/01/30 04:39:45;;;;;;;0.40;0.40;;;;;;;7.03;100.00;102347.88;5092504;28;20024;-58
2024/01/30 04:42:10;;;;;;;0.30;0.30;;;;;;;7.07;100.00;102344.72;5091703;28;20084;-59
2024/01/30 04:44:36;;;;;;;0.30;0.30;;;;;;;7.08;100.00;102346.53;5092757;28;20044;-59
2024/01/30 04:47:01;;;;;;;0.40;0.40;;;;;;;7.13;100.00;102341.69;5092948;28;20024;-59
2024/01/30 04:49:27;;;;;;;0.32;0.32;;;;;;;7.17;100.00;102344.56;5091951;28;20471;-58
2024/01/30 04:51:52;;;;;;;0.32;0.32;;;;;;;7.22;100.00;102340.66;5096860;28;20539;-59
2024/01/30 04:54:18;;;;;;;0.30;0.30;;;;;;;7.25;100.00;102340.84;5096527;28;20031;-59
2024/01/30 04:56:43;;;;;;;0.40;0.40;;;;;;;7.25;100.00;102335.72;5096048;28;20024;-58
2024/01/30 04:59:08;;;;;;;0.40;0.40;;;;;;;7.32;100.00;102339.59;5096985;28;20478;-58
2024/01/30 05:01:34;;;;;;;0.30;0.30;;;;;;;7.35;100.00;102344.03;5096495;28;20036;-59
2024/01/30 05:03:59;;;;;;;0.30;0.30;;;;;;;7.35;100.00;102347.47;5095648;28;20024;-59
2024/01/30 05:06:25;;;;;;;0.30;0.30;;;;;;;7.32;100.00;102347.28;5096316;28;20060;-57
2024/01/30 05:08:51;;;;;;;0.40;0.40;;;;;;;7.36;100.00;102348.34;5096311;28;20035;-58
2024/01/30 05:11:16;;;;;;;0.30;0.30;;;;;;;7.36;100.00;102348.34;5095523;28;20036;-58
2024/01/30 05:13:41;;;;;;;0.40;0.40;;;;;;;7.33;100.00;102337.91;5096668;28;20031;-58
2024/01/30 05:16:07;;;;;;;0.30;0.30;;;;;;;7.37;100.00;102342.44;5096695;28;20062;-58
2024/01/30 05:18:32;;;;;;;0.40;0.40;;;;;;;7.41;100.00;102347.00;5095371;28;20065;-58
2024/01/30 05:20:57;;;;;;;0.30;0.30;;;;;;;7.42;100.00;102348.78;5096406;28;20472;-58
2024/01/30 05:23:23;;;;;;;0.25;0.25;;;;;;;7.45;100.00;102342.97;5094964;28;20034;-58
2024/01/30 05:25:48;;;;;;;0.30;0.30;;;;;;;7.44;100.00;102351.44;5096524;28;20451;-59
2024/01/30 05:28:13;;;;;;;0.30;0.30;;;;;;;7.51;100.00;102349.38;5095941;28;20484;-58
2024/01/30 05:30:39;;;;;;;0.40;0.40;;;;;;;7.53;100.00;102342.69;5095609;28;20020;-59
2024/01/30 05:33:04;;;;;;;0.40;0.40;;;;;;;7.56;100.00;102342.00;5096146;28;20039;-58
2024/01/30 05:35:29;;;;;;;0.30;0.30;;;;;;;7.60;100.00;102340.53;5095878;28;20524;-58
2024/01/30 05:37:55;;;;;;;0.30;0.30;;;;;;;7.60;100.00;102343.09;5095315;28;20028;-59
2024/01/30 05:40:20;;;;;;;0.40;0.40;;;;;;;7.61;100.00;102339.75;5095793;28;20495;-58
2024/01/30 05:42:45;;;;;;;0.30;0.30;;;;;;;7.62;100.00;102349.19;5095900;28;20020;-59
2024/01/30 05:45:11;;;;;;;0.30;0.30;;;;;;;7.58;100.00;102338.75;5094628;28;20044;-59
2024/01/30 05:47:36;;;;;;;0.30;0.30;;;;;;;7.60;100.00;102343.97;5095827;28;20064;-59
2024/01/30 05:50:01;;;;;;;0.30;0.30;;;;;;;7.58;100.00;102356.72;5095961;28;20070;-59
2024/01/30 05:52:27;;;;;;;0.30;0.30;;;;;;;7.60;100.00;102349.09;5094886;28;20115;-59
2024/01/30 05:54:52;;;;;;;0.28;0.28;;;;;;;7.62;100.00;102344.06;5095949;28;20027;-59
2024/01/30 05:57:17;;;;;;;0.30;0.30;;;;;;;7.64;100.00;102340.81;5095606;28;20028;-59
2024/01/30 05:59:43;;;;;;;0.30;0.30;;;;;;;7.68;100.00;102341.91;5094797;28;20383;-58
2024/01/30 06:02:11;;;;;;;0.30;0.30;;;;;;;7.70;100.00;102346.34;5095007;28;20487;-59
2024/01/30 06:04:36;;;;;;;0.30;0.30;;;;;;;7.74;100.00;102352.59;5095525;28;20500;-60
2024/01/30 06:07:01;;;;;;;0.30;0.30;;;;;;;7.72;100.00;102355.06;5094698;28;20511;-59
2024/01/30 06:09:28;;;;;;;0.30;0.30;;;;;;;7.73;100.00;102353.38;5095032;28;20032;-59
2024/01/30 06:11:53;;;;;;;0.30;0.30;;;;;;;7.72;100.00;102354.16;5095562;28;20024;-59
2024/01/30 06:14:18;;;;;;;0.25;0.25;;;;;;;7.75;100.00;102356.94;5094545;28;20019;-59
2024/01/30 06:16:44;;;;;;;0.30;0.30;;;;;;;7.79;100.00;102351.22;5095442;28;20028;-59
2024/01/30 06:19:09;;;;;;;0.30;0.30;;;;;;;7.84;100.00;102352.41;5095224;28;20052;-59
2024/01/30 06:21:36;;;;;;;0.30;0.30;;;;;;;7.85;100.00;102351.63;5094401;28;20042;-59
2024/01/30 06:24:02;;;;;;;0.30;0.30;;;;;;;7.89;100.00;102353.59;5095074;28;20024;-59
2024/01/30 06:26:27;;;;;;;0.30;0.30;;;;;;;7.91;100.00;102351.09;5094775;28;20020;-59
2024/01/30 06:28:53;;;;;;;0.30;0.30;;;;;;;7.90;100.00;102357.94;5094377;28;20036;-58
2024/01/30 06:31:18;;;;;;;0.30;0.30;;;;;;;7.93;100.00;102358.91;5094613;28;20021;-58
2024/01/30 06:33:46;;;;;;;0.30;0.30;;;;;;;7.88;100.00;102359.50;5094291;28;20426;-59
2024/01/30 06:36:11;;;;;;;0.30;0.30;;;;;;;7.91;100.00;102366.50;5094610;28;20357;-59
2024/01/30 06:38:36;;;;;;;0.30;0.30;;;;;;;7.93;100.00;102369.16;5094934;28;20490;-59
2024/01/30 06:41:02;;;;;;;0.32;0.32;;;;;;;7.90;100.00;102369.84;5094010;28;20085;-58
2024/01/30 06:43:27;;;;;;;0.32;0.32;;;;;;;7.88;100.00;102372.34;5094811;28;20031;-58
2024/01/30 06:45:52;;;;;;;0.30;0.30;;;;;;;7.88;100.00;102372.34;5094657;28;20040;-59
2024/01/30 06:48:17;;;;;;;0.30;0.30;;;;;;;7.88;100.00;102380.03;5093823;28;20543;-58
2024/01/30 06:50:43;;;;;;;0.30;0.30;;;;;;;7.90;100.00;102373.34;5094673;28;20031;-59
2024/01/30 06:53:08;;;;;;;0.30;0.30;;;;;;;7.91;100.00;102377.69;5094524;28;20032;-58
2024/01/30 06:55:33;;;;;;;0.32;0.32;;;;;;;7.88;100.00;102362.06;5093752;28;20095;-59
2024/01/30 06:57:59;;;;;;;0.30;0.30;;;;;;;7.93;100.00;102375.22;5094578;28;20510;-59
2024/01/30 07:00:24;;;;;;;0.30;0.30;;;;;;;7.94;100.00;102381.22;5094118;28;20032;-59
2024/01/30 07:02:49;;;;;;;0.30;0.30;;;;;;;7.92;100.00;102386.25;5093756;28;20024;-59
2024/01/30 07:05:15;;;;;;;0.30;0.30;;;;;;;7.95;100.00;102393.28;5093867;28;20032;-58
2024/01/30 07:07:40;;;;;;;0.40;0.40;;;;;;;7.94;100.00;102406.91;5094171;28;20515;-59
2024/01/30 07:10:06;;;;;;;0.30;0.30;;;;;;;7.96;100.00;102406.22;5093522;28;20036;-59
2024/01/30 07:12:31;;;;;;;0.40;0.40;;;;;;;7.93;100.00;102416.28;5093321;28;20031;-59
2024/01/30 07:14:59;;;;;;;0.30;0.30;;;;;;;7.96;100.00;102411.34;5094205;28;20027;-59
2024/01/30 07:17:24;;;;;;;0.30;0.30;;;;;;;7.95;100.00;102412.13;5093077;28;20016;-58
2024/01/30 07:19:50;;;;;;;0.30;0.30;;;;;;;7.96;100.00;102407.91;5093984;28;20020;-59
2024/01/30 07:22:15;;;;;;;0.30;0.30;;;;;;;7.95;100.00;102408.69;5093511;28;20055;-59
2024/01/30 07:24:48;;;;;;;0.28;0.28;;;;;;;7.94;100.00;102417.16;5093426;28;20073;-59
2024/01/30 07:27:14;;;;;;;0.30;0.30;;;;;;;8.01;100.00;102420.25;5093803;28;20107;-59
2024/01/30 07:29:39;;;;;;;0.30;0.30;;;;;;;8.02;100.00;102413.44;5094141;28;20098;-59
2024/01/30 07:32:05;;;;;;;0.30;0.30;;;;;;;8.01;100.00;102420.25;5093300;28;20043;-58
2024/01/30 07:34:30;;;;;;;0.30;0.30;;;;;;;8.01;100.00;102419.34;5093314;28;20444;-59
2024/01/30 07:36:55;;;;;;;0.35;0.35;;;;;;;8.00;100.00;102428.72;5093624;28;20494;-58
2024/01/30 07:39:21;;;;;;;0.30;0.30;;;;;;;7.97;100.00;102422.53;5092938;28;20032;-58
2024/01/30 07:41:46;;;;;;;0.30;0.30;;;;;;;8.00;100.00;102428.72;5093699;28;20031;-59
2024/01/30 07:44:11;;;;;;;0.30;0.30;;;;;;;8.00;100.00;102422.72;5092368;28;20384;-59
2024/01/30 07:46:37;;;;;;;0.30;0.30;;;;;;;8.01;100.00;102427.94;5093890;28;20028;-58
2024/01/30 07:49:02;;;;;;;0.20;0.20;;;;;;;8.04;100.00;102430.72;5093338;28;20057;-59
2024/01/30 07:51:29;;;;;;;0.30;0.30;;;;;;;8.03;100.00;102428.03;5092613;28;20047;-59
2024/01/30 07:53:54;;;;;;;0.38;0.38;;;;;;;8.07;100.00;102430.03;5093658;28;20028;-58
2024/01/30 07:56:20;;;;;;;0.30;0.30;;;;;;;8.08;100.00;102432.69;5092852;28;20039;-58
2024/01/30 07:58:45;;;;;;;0.20;0.20;;;;;;;8.15;100.00;102443.38;5092377;28;20028;-59
2024/01/30 08:01:11;;;;;;;0.30;0.30;;;;;;;8.16;100.00;102440.91;5093118;28;20024;-58
2024/01/30 08:03:36;;;;;;;0.40;0.40;;;;;;;8.19;100.00;102443.66;5093390;28;20493;-58
2024/01/30 08:06:02;;;;;;;0.30;0.30;;;;;;;8.19;100.00;102443.66;5092483;28;20420;-59
2024/01/30 08:08:28;;;;;;;0.30;0.30;;;;;;;8.23;100.00;102457.59;5092977;28;20030;-58
2024/01/30 08:10:53;;;;;;;0.20;0.20;;;;;;;8.24;100.00;102447.41;5093276;28;20028;-58
2024/01/30 08:13:18;;;;;;;0.30;0.30;;;;;;;8.26;100.00;102444.06;5092247;28;20024;-58
2024/01/30 08:15:44;;;;;;;0.30;0.30;;;;;;;8.28;100.00;102450.19;5093219;28;20106;-58
2024/01/30 08:18:09;;;;;;;0.30;0.30;;;;;;;8.30;100.00;102457.22;5092876;28;20063;-58
2024/01/30 08:20:34;;;;;;;0.20;0.20;;;;;;;8.32;100.00;102457.31;5092046;28;20036;-58
2024/01/30 08:23:00;;;;;;;0.30;0.30;;;;;;;8.35;100.00;102458.41;5092824;28;20035;-58
2024/01/30 08:25:25;;;;;;;0.30;0.30;;;;;;;8.42;100.00;102454.53;5092696;28;20483;-58
2024/01/30 08:27:51;;;;;;;0.30;0.30;;;;;;;8.45;100.00;102459.88;5092197;28;20487;-58
2024/01/30 08:30:16;;;;;;;0.20;0.20;;;;;;;8.51;100.00;102459.44;5092609;28;20474;-58
2024/01/30 08:32:41;;;;;;;0.30;0.30;;;;;;;8.57;100.00;102455.56;5092879;28;20533;-58
2024/01/30 08:35:08;;;;;;;0.30;0.30;;;;;;;8.61;100.00;102453.16;5092095;28;20064;-58
2024/01/30 08:37:33;;;;;;;0.30;0.30;;;;;;;8.65;100.00;102450.91;5092497;28;20024;-58
2024/01/30 08:39:59;;;;;;;0.20;0.20;;;;;;;8.69;100.00;102455.44;5092674;28;20028;-58
2024/01/30 08:42:25;;;;;;;0.30;0.30;;;;;;;8.76;100.00;102450.69;5091541;28;20016;-57
2024/01/30 08:44:52;;;;;;;0.30;0.30;;;;;;;8.80;100.00;102450.97;5092629;28;20115;-57
2024/01/30 08:47:18;;;;;;;0.20;0.20;;;;;;;8.85;100.00;102452.13;5091960;28;20055;-58
2024/01/30 08:49:44;;;;;;;0.38;0.38;;;;;;;8.89;100.00;102454.09;5092376;28;20046;-57
2024/01/30 08:52:10;;;;;;;0.28;0.28;;;;;;;8.92;100.00;102452.53;5092774;28;20020;-57
2024/01/30 08:54:35;;;;;;;0.30;0.30;;;;;;;8.99;100.00;102454.69;5092161;28;20097;-57
2024/01/30 08:57:01;;;;;;;0.20;0.20;;;;;;;9.01;100.00;102447.94;5092760;28;20020;-58
2024/01/30 08:59:27;;;;;;;0.30;0.30;;;;;;;9.08;100.00;102455.25;5092301;28;20060;-58
2024/01/30 09:01:54;;;;;;;0.25;0.25;;;;;;;9.12;100.00;102456.34;5091781;28;20043;-58
2024/01/30 09:04:20;;;;;;;0.30;0.30;;;;;;;9.13;100.00;102455.53;5092281;28;20028;-57
2024/01/30 09:06:46;;;;;;;0.30;0.30;;;;;;;9.21;100.00;102457.78;5092590;28;20032;-58
2024/01/30 09:09:11;;;;;;;0.30;0.30;;;;;;;9.28;100.00;102458.16;5091141;28;20039;-58
2024/01/30 09:11:36;;;;;;;0.30;0.30;;;;;;;9.30;100.00;102459.16;5092783;28;20420;-58
2024/01/30 09:14:02;;;;;;;0.28;0.28;;;;;;;9.33;100.00;102462.78;5092667;28;20032;-58
2024/01/30 09:16:28;;;;;;;0.20;0.20;;;;;;;9.39;100.00;102455.44;5091467;28;20539;-58
2024/01/30 09:18:53;;;;;;;0.30;0.30;;;;;;;9.43;100.00;102460.78;5092351;28;20022;-58
2024/01/30 09:21:19;;;;;;;0.30;0.30;;;;;;;9.44;100.00;102460.88;5092139;28;20034;-58
2024/01/30 09:23:44;;;;;;;0.30;0.30;;;;;;;9.52;100.00;102461.34;5091789;28;20073;-59
2024/01/30 09:26:09;;;;;;;0.30;0.30;;;;;;;9.55;100.00;102474.38;5092066;28;20468;-59
2024/01/30 09:28:34;;;;;;;0.30;0.30;;;;;;;9.59;100.00;102465.16;5092186;28;20384;-58
2024/01/30 09:31:00;;;;;;;0.20;0.20;;;;;;;9.65;100.00;102473.25;5091545;28;20036;-58
2024/01/30 09:33:25;;;;;;;0.30;0.30;;;;;;;9.69;100.00;102467.47;5091997;28;20036;-58
2024/01/30 09:35:51;;;;;;;0.20;0.20;;;;;;;9.75;100.00;102478.16;5092554;28;20120;-58
2024/01/30 09:38:16;;;;;;;0.20;0.20;;;;;;;9.81;100.00;102473.38;5094841;28;20028;-58
2024/01/30 09:40:42;;;;;;;0.30;0.30;;;;;;;9.87;100.00;102488.28;5096063;28;20035;-58
2024/01/30 09:43:07;;;;;;;0.30;0.30;;;;;;;9.94;100.00;102493.00;5096130;28;20055;-58
2024/01/30 09:45:34;;;;;;;0.20;0.20;;;;;;;10.00;100.00;102493.34;5094590;28;20040;-58
2024/01/30 09:48:00;;;;;;;0.28;0.28;;;;;;;10.08;100.00;102498.06;5095788;28;20050;-59
2024/01/30 09:50:27;;;;;;;0.30;0.30;;;;;;;10.10;100.00;102499.94;5095718;28;20539;-58
2024/01/30 09:52:55;;;;;;;0.25;0.25;;;;;;;10.12;100.00;102506.06;5095330;28;20036;-58
2024/01/30 09:55:20;;;;;;;0.30;0.30;;;;;;;10.14;100.00;102493.28;5095296;28;20024;-58
2024/01/30 09:57:46;;;;;;;0.30;0.30;;;;;;;10.16;100.00;102492.56;5094992;28;20035;-58
2024/01/30 10:00:12;;;;;;;0.20;0.20;;;;;;;10.17;100.00;102494.34;5095015;28;20032;-58
2024/01/30 10:02:39;;;;;;;0.20;0.20;;;;;;;10.20;100.00;102497.06;5095484;28;20028;-58
2024/01/30 10:05:04;;;;;;;0.30;0.30;;;;;;;10.25;100.00;102497.34;5094521;28;20023;-58
2024/01/30 10:07:30;;;;;;;0.25;0.25;;;;;;;10.25;100.00;102496.44;5095301;28;20035;-58
2024/01/30 10:09:56;;;;;;;0.30;0.30;;;;;;;10.22;100.00;102502.31;5095640;28;20028;-58
2024/01/30 10:12:22;;;;;;;0.30;0.30;;;;;;;10.20;100.00;102499.66;5094398;28;20020;-58
2024/01/30 10:14:47;;;;;;;0.30;0.30;;;;;;;10.18;100.00;102490.94;5095339;28;20387;-58
2024/01/30 10:17:13;;;;;;;0.30;0.30;;;;;;;10.17;100.00;102503.75;5094945;28;20024;-58
2024/01/30 10:19:40;;;;;;;0.30;0.30;;;;;;;10.14;100.00;102501.88;5094407;28;20085;-58
2024/01/30 10:22:05;;;;;;;0.30;0.30;;;;;;;10.12;100.00;102500.91;5095359;28;20028;-58
2024/01/30 10:24:31;;;;;;;0.20;0.20;;;;;;;10.12;100.00;102506.06;5095042;28;20030;-58
2024/01/30 10:26:56;;;;;;;0.30;0.30;;;;;;;10.12;100.00;102521.53;5094391;28;20060;-58
2024/01/30 10:29:22;;;;;;;0.22;0.22;;;;;;;10.15;100.00;102519.13;5094755;28;20110;-58
2024/01/30 10:32:04;;;;;;;0.22;0.22;;;;;;;10.18;100.00;102515.81;5094869;28;20028;-57
2024/01/30 10:34:30;;;;;;;0.30;0.30;;;;;;;10.22;100.00;102517.78;5093673;28;20036;-58
2024/01/30 10:37:15;;;;;;;0.20;0.20;;;;;;;10.29;100.00;102508.72;5094735;28;20438;-58
2024/01/30 10:39:43;;;;;;;0.30;0.30;;;;;;;10.32;100.00;102508.91;5094893;28;20043;-58
2024/01/30 10:42:17;;;;;;;0.30;0.30;;;;;;;10.39;100.00;102516.19;5093893;28;20032;-58
2024/01/30 10:45:02;;;;;;;0.30;0.30;;;;;;;10.47;100.00;102527.84;5094560;28;20051;-58
2024/01/30 10:47:28;;;;;;;0.30;0.30;;;;;;;10.46;100.00;102523.50;5092788;28;20476;-58
2024/01/30 10:49:57;;;;;;;0.20;0.20;;;;;;;10.44;100.00;102519.94;5094507;28;20020;-58
2024/01/30 10:52:25;;;;;;;0.30;0.30;;;;;;;10.46;100.00;102517.47;5094129;28;20031;-58
2024/01/30 10:54:52;;;;;;;0.30;0.30;;;;;;;10.47;100.00;102516.63;5093932;28;20020;-58
2024/01/30 10:57:17;;;;;;;0.30;0.30;;;;;;;10.54;100.00;102522.22;5094134;28;20028;-58
2024/01/30 10:59:44;;;;;;;0.30;0.30;;;;;;;10.56;100.00;102513.69;5094401;28;20028;-58
2024/01/30 11:02:10;;;;;;;0.20;0.20;;;;;;;10.58;100.00;102518.13;5093417;28;20028;-59
2024/01/30 11:04:41;;;;;;;0.20;0.20;;;;;;;10.61;100.00;102523.44;5094274;28;20380;-58
2024/01/30 11:07:23;;;;;;;0.22;0.22;;;;;;;10.65;100.00;102524.53;5094356;28;20032;-58
2024/01/30 11:10:03;;;;;;;0.20;0.20;;;;;;;10.59;100.00;102521.59;5093569;28;20043;-58
2024/01/30 11:12:30;;;;;;;0.20;0.20;;;;;;;10.53;100.00;102530.78;5094006;28;20024;-58
2024/01/30 11:15:06;;;;;;;0.20;0.20;;;;;;;10.51;100.00;102527.22;5094133;28;20031;-59
2024/01/30 11:17:44;;;;;;;0.30;0.30;;;;;;;10.49;100.00;102526.22;5093467;28;20024;-59